sensor_id;sensor_type;location;lat;lon;timestamp;P1;durP1;ratioP1;P2;durP2;ratioP2
4726;SDS011;2377;51.734;8.950;2023-03-23T00:01:07;4.50;;;2.30;;
4726;SDS011;2377;51.734;8.950;2023-03-23T00:03:38;5.60;;;2.20;;
4726;SDS011;2377;51.734;8.950;2023-03-23T00:06:07;4.13;;;2.00;;
4726;SDS011;2377;51.734;8.950;2023-03-23T00:08:35;3.57;;;2.17;;
4726;SDS011;2377;51.734;8.950;2023-03-23T00:11:10;3.37;;;2.00;;
4726;SDS011;2377;51.734;8.950;2023-03-23T00:13:40;4.60;;;2.13;;
4726;SDS011;2377;51.734;8.950;2023-03-23T00:16:08;4.17;;;2.03;;
4726;SDS011;2377;51.734;8.950;2023-03-23T00:18:42;3.83;;;2.00;;
4726;SDS011;2377;51.734;8.950;2023-03-23T00:21:12;6.13;;;2.83;;
4726;SDS011;2377;51.734;8.950;2023-03-23T00:23:39;5.50;;;2.47;;
4726;SDS011;2377;51.734;8.950;2023-03-23T00:26:10;7.27;;;2.40;;
4726;SDS011;2377;51.734;8.950;2023-03-23T00:28:38;3.60;;;2.07;;
4726;SDS011;2377;51.734;8.950;2023-03-23T00:31:07;6.33;;;2.17;;
4726;SDS011;2377;51.734;8.950;2023-03-23T00:33:36;7.80;;;2.23;;
4726;SDS011;2377;51.734;8.950;2023-03-23T00:36:06;9.00;;;2.87;;
4726;SDS011;2377;51.734;8.950;2023-03-23T00:38:36;4.20;;;2.07;;
4726;SDS011;2377;51.734;8.950;2023-03-23T00:41:05;6.30;;;2.50;;
4726;SDS011;2377;51.734;8.950;2023-03-23T00:43:32;9.30;;;2.37;;
4726;SDS011;2377;51.734;8.950;2023-03-23T00:46:01;6.27;;;2.40;;
4726;SDS011;2377;51.734;8.950;2023-03-23T00:48:34;4.93;;;2.33;;
4726;SDS011;2377;51.734;8.950;2023-03-23T00:51:06;8.50;;;2.60;;
4726;SDS011;2377;51.734;8.950;2023-03-23T00:53:36;6.00;;;2.57;;
4726;SDS011;2377;51.734;8.950;2023-03-23T00:56:05;4.83;;;2.63;;
4726;SDS011;2377;51.734;8.950;2023-03-23T00:58:34;5.43;;;2.77;;
4726;SDS011;2377;51.734;8.950;2023-03-23T01:01:02;3.80;;;1.93;;
4726;SDS011;2377;51.734;8.950;2023-03-23T01:03:30;3.80;;;2.40;;
4726;SDS011;2377;51.734;8.950;2023-03-23T01:06:03;7.90;;;3.40;;
4726;SDS011;2377;51.734;8.950;2023-03-23T01:08:33;5.87;;;2.77;;
4726;SDS011;2377;51.734;8.950;2023-03-23T01:11:06;9.53;;;2.80;;
4726;SDS011;2377;51.734;8.950;2023-03-23T01:13:34;4.73;;;2.30;;
4726;SDS011;2377;51.734;8.950;2023-03-23T01:16:01;4.60;;;2.77;;
4726;SDS011;2377;51.734;8.950;2023-03-23T01:18:29;5.10;;;2.50;;
4726;SDS011;2377;51.734;8.950;2023-03-23T01:20:56;4.87;;;2.40;;
4726;SDS011;2377;51.734;8.950;2023-03-23T01:23:23;3.80;;;2.10;;
4726;SDS011;2377;51.734;8.950;2023-03-23T01:25:50;5.50;;;2.83;;
4726;SDS011;2377;51.734;8.950;2023-03-23T01:28:20;4.37;;;2.53;;
4726;SDS011;2377;51.734;8.950;2023-03-23T01:30:47;9.43;;;2.80;;
4726;SDS011;2377;51.734;8.950;2023-03-23T01:33:14;6.13;;;2.63;;
4726;SDS011;2377;51.734;8.950;2023-03-23T01:35:42;5.30;;;2.40;;
4726;SDS011;2377;51.734;8.950;2023-03-23T01:38:09;4.87;;;2.60;;
4726;SDS011;2377;51.734;8.950;2023-03-23T01:40:36;8.20;;;3.10;;
4726;SDS011;2377;51.734;8.950;2023-03-23T01:43:07;5.43;;;2.80;;
4726;SDS011;2377;51.734;8.950;2023-03-23T01:45:41;5.30;;;2.63;;
4726;SDS011;2377;51.734;8.950;2023-03-23T01:48:09;4.90;;;2.50;;
4726;SDS011;2377;51.734;8.950;2023-03-23T01:50:48;4.50;;;2.80;;
4726;SDS011;2377;51.734;8.950;2023-03-23T01:53:22;5.60;;;2.70;;
4726;SDS011;2377;51.734;8.950;2023-03-23T01:55:55;4.70;;;2.80;;
4726;SDS011;2377;51.734;8.950;2023-03-23T01:58:27;5.23;;;3.00;;
4726;SDS011;2377;51.734;8.950;2023-03-23T02:01:02;5.43;;;2.57;;
4726;SDS011;2377;51.734;8.950;2023-03-23T02:03:34;6.13;;;2.83;;
4726;SDS011;2377;51.734;8.950;2023-03-23T02:06:03;5.23;;;2.77;;
4726;SDS011;2377;51.734;8.950;2023-03-23T02:08:31;5.97;;;3.17;;
4726;SDS011;2377;51.734;8.950;2023-03-23T02:11:01;9.33;;;2.70;;
4726;SDS011;2377;51.734;8.950;2023-03-23T02:13:38;4.03;;;2.83;;
4726;SDS011;2377;51.734;8.950;2023-03-23T02:16:08;8.20;;;2.83;;
4726;SDS011;2377;51.734;8.950;2023-03-23T02:18:52;5.27;;;2.63;;
4726;SDS011;2377;51.734;8.950;2023-03-23T02:24:38;6.00;;;2.70;;
4726;SDS011;2377;51.734;8.950;2023-03-23T02:27:28;4.80;;;2.60;;
4726;SDS011;2377;51.734;8.950;2023-03-23T02:30:37;4.47;;;2.73;;
4726;SDS011;2377;51.734;8.950;2023-03-23T02:33:30;6.37;;;3.07;;
4726;SDS011;2377;51.734;8.950;2023-03-23T02:36:09;4.70;;;2.80;;
4726;SDS011;2377;51.734;8.950;2023-03-23T02:38:50;6.53;;;2.60;;
4726;SDS011;2377;51.734;8.950;2023-03-23T02:41:25;6.40;;;2.67;;
4726;SDS011;2377;51.734;8.950;2023-03-23T02:43:57;5.13;;;2.77;;
4726;SDS011;2377;51.734;8.950;2023-03-23T02:46:28;4.07;;;2.50;;
4726;SDS011;2377;51.734;8.950;2023-03-23T02:48:59;3.70;;;2.50;;
4726;SDS011;2377;51.734;8.950;2023-03-23T02:51:29;6.00;;;2.90;;
4726;SDS011;2377;51.734;8.950;2023-03-23T02:53:58;7.83;;;3.00;;
4726;SDS011;2377;51.734;8.950;2023-03-23T02:56:28;5.00;;;3.03;;
4726;SDS011;2377;51.734;8.950;2023-03-23T02:58:57;5.17;;;2.67;;
4726;SDS011;2377;51.734;8.950;2023-03-23T03:01:46;6.10;;;2.83;;
4726;SDS011;2377;51.734;8.950;2023-03-23T03:04:26;4.60;;;2.50;;
4726;SDS011;2377;51.734;8.950;2023-03-23T03:07:01;4.93;;;3.20;;
4726;SDS011;2377;51.734;8.950;2023-03-23T03:09:45;3.30;;;2.00;;
4726;SDS011;2377;51.734;8.950;2023-03-23T03:12:22;4.30;;;2.90;;
4726;SDS011;2377;51.734;8.950;2023-03-23T03:15:04;6.00;;;2.90;;
4726;SDS011;2377;51.734;8.950;2023-03-23T03:17:45;5.77;;;2.67;;
4726;SDS011;2377;51.734;8.950;2023-03-23T03:20:26;4.30;;;2.70;;
4726;SDS011;2377;51.734;8.950;2023-03-23T03:22:55;5.03;;;2.63;;
4726;SDS011;2377;51.734;8.950;2023-03-23T03:25:25;7.50;;;2.90;;
4726;SDS011;2377;51.734;8.950;2023-03-23T03:27:53;4.73;;;2.83;;
4726;SDS011;2377;51.734;8.950;2023-03-23T03:30:24;4.80;;;2.80;;
4726;SDS011;2377;51.734;8.950;2023-03-23T03:32:56;6.87;;;2.57;;
4726;SDS011;2377;51.734;8.950;2023-03-23T03:35:26;4.90;;;2.57;;
4726;SDS011;2377;51.734;8.950;2023-03-23T03:37:54;4.63;;;2.67;;
4726;SDS011;2377;51.734;8.950;2023-03-23T03:40:23;4.10;;;2.60;;
4726;SDS011;2377;51.734;8.950;2023-03-23T03:42:50;3.60;;;2.50;;
4726;SDS011;2377;51.734;8.950;2023-03-23T03:45:18;4.60;;;2.60;;
4726;SDS011;2377;51.734;8.950;2023-03-23T03:47:46;3.10;;;2.20;;
4726;SDS011;2377;51.734;8.950;2023-03-23T03:50:13;4.07;;;2.30;;
4726;SDS011;2377;51.734;8.950;2023-03-23T03:52:42;4.03;;;2.40;;
4726;SDS011;2377;51.734;8.950;2023-03-23T03:55:10;2.93;;;1.97;;
4726;SDS011;2377;51.734;8.950;2023-03-23T03:57:37;4.20;;;2.30;;
4726;SDS011;2377;51.734;8.950;2023-03-23T04:00:07;4.47;;;2.30;;
4726;SDS011;2377;51.734;8.950;2023-03-23T04:02:39;4.83;;;2.50;;
4726;SDS011;2377;51.734;8.950;2023-03-23T04:05:15;4.00;;;2.07;;
4726;SDS011;2377;51.734;8.950;2023-03-23T04:07:45;4.80;;;2.27;;
4726;SDS011;2377;51.734;8.950;2023-03-23T04:10:16;4.37;;;2.23;;
4726;SDS011;2377;51.734;8.950;2023-03-23T04:12:46;3.90;;;1.80;;
4726;SDS011;2377;51.734;8.950;2023-03-23T04:15:13;3.20;;;1.90;;
4726;SDS011;2377;51.734;8.950;2023-03-23T04:17:41;4.23;;;2.10;;
4726;SDS011;2377;51.734;8.950;2023-03-23T04:20:09;3.90;;;2.10;;
4726;SDS011;2377;51.734;8.950;2023-03-23T04:22:42;2.77;;;1.60;;
4726;SDS011;2377;51.734;8.950;2023-03-23T04:25:14;3.13;;;1.83;;
4726;SDS011;2377;51.734;8.950;2023-03-23T04:27:45;4.03;;;2.03;;
4726;SDS011;2377;51.734;8.950;2023-03-23T04:30:17;2.73;;;2.00;;
4726;SDS011;2377;51.734;8.950;2023-03-23T04:32:48;2.93;;;1.77;;
4726;SDS011;2377;51.734;8.950;2023-03-23T04:35:17;3.83;;;1.67;;
4726;SDS011;2377;51.734;8.950;2023-03-23T04:37:47;2.93;;;1.73;;
4726;SDS011;2377;51.734;8.950;2023-03-23T04:40:15;5.47;;;1.67;;
4726;SDS011;2377;51.734;8.950;2023-03-23T04:42:46;4.20;;;2.00;;
4726;SDS011;2377;51.734;8.950;2023-03-23T04:45:16;3.50;;;1.70;;
4726;SDS011;2377;51.734;8.950;2023-03-23T04:47:47;4.77;;;1.80;;
4726;SDS011;2377;51.734;8.950;2023-03-23T04:50:19;4.43;;;2.10;;
4726;SDS011;2377;51.734;8.950;2023-03-23T04:52:50;2.60;;;1.77;;
4726;SDS011;2377;51.734;8.950;2023-03-23T04:55:19;2.90;;;1.80;;
4726;SDS011;2377;51.734;8.950;2023-03-23T04:57:47;3.93;;;1.70;;
4726;SDS011;2377;51.734;8.950;2023-03-23T05:00:14;3.23;;;1.90;;
4726;SDS011;2377;51.734;8.950;2023-03-23T05:02:42;2.70;;;2.00;;
4726;SDS011;2377;51.734;8.950;2023-03-23T05:05:16;3.20;;;2.10;;
4726;SDS011;2377;51.734;8.950;2023-03-23T05:07:46;2.30;;;1.70;;
4726;SDS011;2377;51.734;8.950;2023-03-23T05:10:14;3.60;;;2.10;;
4726;SDS011;2377;51.734;8.950;2023-03-23T05:12:42;2.40;;;1.63;;
4726;SDS011;2377;51.734;8.950;2023-03-23T05:15:10;4.07;;;1.53;;
4726;SDS011;2377;51.734;8.950;2023-03-23T05:17:40;5.40;;;2.00;;
4726;SDS011;2377;51.734;8.950;2023-03-23T05:20:10;2.80;;;1.80;;
4726;SDS011;2377;51.734;8.950;2023-03-23T05:22:39;2.90;;;1.60;;
4726;SDS011;2377;51.734;8.950;2023-03-23T05:25:09;5.13;;;1.70;;
4726;SDS011;2377;51.734;8.950;2023-03-23T05:27:38;3.20;;;2.13;;
4726;SDS011;2377;51.734;8.950;2023-03-23T05:30:07;4.00;;;1.70;;
4726;SDS011;2377;51.734;8.950;2023-03-23T05:32:36;7.13;;;2.00;;
4726;SDS011;2377;51.734;8.950;2023-03-23T05:35:04;5.23;;;1.90;;
4726;SDS011;2377;51.734;8.950;2023-03-23T05:37:31;3.10;;;1.90;;
4726;SDS011;2377;51.734;8.950;2023-03-23T05:39:58;3.00;;;1.87;;
4726;SDS011;2377;51.734;8.950;2023-03-23T05:42:30;2.67;;;1.57;;
4726;SDS011;2377;51.734;8.950;2023-03-23T05:45:00;3.37;;;1.90;;
4726;SDS011;2377;51.734;8.950;2023-03-23T05:47:28;5.10;;;1.80;;
4726;SDS011;2377;51.734;8.950;2023-03-23T05:49:55;3.07;;;1.83;;
4726;SDS011;2377;51.734;8.950;2023-03-23T05:52:22;4.30;;;2.00;;
4726;SDS011;2377;51.734;8.950;2023-03-23T05:54:50;3.83;;;2.00;;
4726;SDS011;2377;51.734;8.950;2023-03-23T05:57:17;3.60;;;2.17;;
4726;SDS011;2377;51.734;8.950;2023-03-23T05:59:46;3.90;;;2.50;;
4726;SDS011;2377;51.734;8.950;2023-03-23T06:02:15;3.30;;;1.83;;
4726;SDS011;2377;51.734;8.950;2023-03-23T06:04:42;4.57;;;3.20;;
4726;SDS011;2377;51.734;8.950;2023-03-23T06:07:10;9.90;;;4.37;;
4726;SDS011;2377;51.734;8.950;2023-03-23T06:09:38;3.80;;;2.40;;
4726;SDS011;2377;51.734;8.950;2023-03-23T06:12:06;5.13;;;2.80;;
4726;SDS011;2377;51.734;8.950;2023-03-23T06:14:34;3.77;;;2.20;;
4726;SDS011;2377;51.734;8.950;2023-03-23T06:17:02;4.80;;;2.67;;
4726;SDS011;2377;51.734;8.950;2023-03-23T06:19:31;4.73;;;2.60;;
4726;SDS011;2377;51.734;8.950;2023-03-23T06:21:59;5.00;;;2.77;;
4726;SDS011;2377;51.734;8.950;2023-03-23T06:24:27;3.70;;;2.43;;
4726;SDS011;2377;51.734;8.950;2023-03-23T06:26:54;3.33;;;2.43;;
4726;SDS011;2377;51.734;8.950;2023-03-23T06:29:21;5.20;;;2.60;;
4726;SDS011;2377;51.734;8.950;2023-03-23T06:31:49;3.70;;;2.73;;
4726;SDS011;2377;51.734;8.950;2023-03-23T06:34:20;6.57;;;2.40;;
4726;SDS011;2377;51.734;8.950;2023-03-23T06:36:49;3.37;;;2.10;;
4726;SDS011;2377;51.734;8.950;2023-03-23T06:39:16;3.93;;;2.40;;
4726;SDS011;2377;51.734;8.950;2023-03-23T06:41:44;4.43;;;2.57;;
4726;SDS011;2377;51.734;8.950;2023-03-23T06:44:11;6.13;;;2.20;;
4726;SDS011;2377;51.734;8.950;2023-03-23T06:46:38;4.60;;;2.60;;
4726;SDS011;2377;51.734;8.950;2023-03-23T06:49:06;3.57;;;2.37;;
4726;SDS011;2377;51.734;8.950;2023-03-23T06:51:34;3.83;;;2.50;;
4726;SDS011;2377;51.734;8.950;2023-03-23T06:54:03;4.50;;;2.20;;
4726;SDS011;2377;51.734;8.950;2023-03-23T06:56:31;3.87;;;2.27;;
4726;SDS011;2377;51.734;8.950;2023-03-23T06:58:59;3.63;;;2.10;;
4726;SDS011;2377;51.734;8.950;2023-03-23T07:01:26;5.20;;;2.73;;
4726;SDS011;2377;51.734;8.950;2023-03-23T07:03:53;3.80;;;2.70;;
4726;SDS011;2377;51.734;8.950;2023-03-23T07:06:21;4.30;;;1.90;;
4726;SDS011;2377;51.734;8.950;2023-03-23T07:08:51;4.80;;;2.40;;
4726;SDS011;2377;51.734;8.950;2023-03-23T07:11:19;4.60;;;2.87;;
4726;SDS011;2377;51.734;8.950;2023-03-23T07:13:46;5.87;;;2.43;;
4726;SDS011;2377;51.734;8.950;2023-03-23T07:16:14;4.53;;;2.70;;
4726;SDS011;2377;51.734;8.950;2023-03-23T07:18:42;3.60;;;2.43;;
4726;SDS011;2377;51.734;8.950;2023-03-23T07:21:09;5.00;;;2.47;;
4726;SDS011;2377;51.734;8.950;2023-03-23T07:23:36;3.60;;;2.13;;
4726;SDS011;2377;51.734;8.950;2023-03-23T07:26:04;4.37;;;2.03;;
4726;SDS011;2377;51.734;8.950;2023-03-23T07:28:33;3.70;;;2.10;;
4726;SDS011;2377;51.734;8.950;2023-03-23T07:31:01;3.60;;;2.20;;
4726;SDS011;2377;51.734;8.950;2023-03-23T07:33:28;5.77;;;2.50;;
4726;SDS011;2377;51.734;8.950;2023-03-23T07:35:57;4.93;;;2.93;;
4726;SDS011;2377;51.734;8.950;2023-03-23T07:38:26;6.53;;;2.80;;
4726;SDS011;2377;51.734;8.950;2023-03-23T07:40:53;5.37;;;2.60;;
4726;SDS011;2377;51.734;8.950;2023-03-23T07:43:21;4.63;;;2.70;;
4726;SDS011;2377;51.734;8.950;2023-03-23T07:45:50;6.53;;;2.30;;
4726;SDS011;2377;51.734;8.950;2023-03-23T07:48:17;6.50;;;3.00;;
4726;SDS011;2377;51.734;8.950;2023-03-23T07:50:45;5.60;;;2.60;;
4726;SDS011;2377;51.734;8.950;2023-03-23T07:53:12;3.77;;;2.17;;
4726;SDS011;2377;51.734;8.950;2023-03-23T07:55:39;4.87;;;2.47;;
4726;SDS011;2377;51.734;8.950;2023-03-23T07:58:07;6.40;;;2.50;;
4726;SDS011;2377;51.734;8.950;2023-03-23T08:00:34;4.33;;;2.37;;
4726;SDS011;2377;51.734;8.950;2023-03-23T08:03:04;5.73;;;2.60;;
4726;SDS011;2377;51.734;8.950;2023-03-23T08:05:32;4.97;;;2.50;;
4726;SDS011;2377;51.734;8.950;2023-03-23T08:07:59;6.53;;;2.60;;
4726;SDS011;2377;51.734;8.950;2023-03-23T08:10:26;4.00;;;2.57;;
4726;SDS011;2377;51.734;8.950;2023-03-23T08:12:55;6.07;;;2.80;;
4726;SDS011;2377;51.734;8.950;2023-03-23T08:15:24;5.47;;;2.30;;
4726;SDS011;2377;51.734;8.950;2023-03-23T08:17:52;6.60;;;2.50;;
4726;SDS011;2377;51.734;8.950;2023-03-23T08:20:21;5.20;;;2.43;;
4726;SDS011;2377;51.734;8.950;2023-03-23T08:22:51;6.10;;;2.50;;
4726;SDS011;2377;51.734;8.950;2023-03-23T08:25:23;6.73;;;2.60;;
4726;SDS011;2377;51.734;8.950;2023-03-23T08:27:51;5.47;;;2.20;;
4726;SDS011;2377;51.734;8.950;2023-03-23T08:30:19;5.03;;;2.20;;
4726;SDS011;2377;51.734;8.950;2023-03-23T08:32:48;9.20;;;2.50;;
4726;SDS011;2377;51.734;8.950;2023-03-23T08:35:16;7.00;;;2.80;;
4726;SDS011;2377;51.734;8.950;2023-03-23T08:37:46;7.13;;;2.37;;
4726;SDS011;2377;51.734;8.950;2023-03-23T08:40:16;4.00;;;2.10;;
4726;SDS011;2377;51.734;8.950;2023-03-23T08:42:45;7.50;;;2.60;;
4726;SDS011;2377;51.734;8.950;2023-03-23T08:45:15;5.50;;;2.50;;
4726;SDS011;2377;51.734;8.950;2023-03-23T08:47:45;5.60;;;2.37;;
4726;SDS011;2377;51.734;8.950;2023-03-23T08:50:15;7.57;;;2.70;;
4726;SDS011;2377;51.734;8.950;2023-03-23T08:52:45;8.43;;;2.60;;
4726;SDS011;2377;51.734;8.950;2023-03-23T08:55:13;5.20;;;2.27;;
4726;SDS011;2377;51.734;8.950;2023-03-23T08:57:42;4.70;;;2.10;;
4726;SDS011;2377;51.734;8.950;2023-03-23T09:00:11;4.67;;;2.40;;
4726;SDS011;2377;51.734;8.950;2023-03-23T09:02:42;8.17;;;2.60;;
4726;SDS011;2377;51.734;8.950;2023-03-23T09:05:12;8.27;;;2.60;;
4726;SDS011;2377;51.734;8.950;2023-03-23T09:07:41;10.43;;;2.47;;
4726;SDS011;2377;51.734;8.950;2023-03-23T09:10:13;6.47;;;2.40;;
4726;SDS011;2377;51.734;8.950;2023-03-23T09:12:42;7.67;;;2.40;;
4726;SDS011;2377;51.734;8.950;2023-03-23T09:15:11;9.70;;;2.43;;
4726;SDS011;2377;51.734;8.950;2023-03-23T09:17:43;6.73;;;2.47;;
4726;SDS011;2377;51.734;8.950;2023-03-23T09:20:13;6.40;;;2.30;;
4726;SDS011;2377;51.734;8.950;2023-03-23T09:22:44;3.83;;;2.10;;
4726;SDS011;2377;51.734;8.950;2023-03-23T09:25:16;7.93;;;2.93;;
4726;SDS011;2377;51.734;8.950;2023-03-23T09:27:48;6.20;;;2.30;;
4726;SDS011;2377;51.734;8.950;2023-03-23T09:30:19;7.50;;;2.37;;
4726;SDS011;2377;51.734;8.950;2023-03-23T09:32:46;4.97;;;2.40;;
4726;SDS011;2377;51.734;8.950;2023-03-23T09:35:14;12.93;;;2.73;;
4726;SDS011;2377;51.734;8.950;2023-03-23T09:37:42;4.77;;;1.80;;
4726;SDS011;2377;51.734;8.950;2023-03-23T09:40:13;7.00;;;2.30;;
4726;SDS011;2377;51.734;8.950;2023-03-23T09:42:48;7.80;;;2.20;;
4726;SDS011;2377;51.734;8.950;2023-03-23T09:45:33;4.87;;;2.00;;
4726;SDS011;2377;51.734;8.950;2023-03-23T09:48:19;4.57;;;2.00;;
4726;SDS011;2377;51.734;8.950;2023-03-23T09:51:00;5.03;;;2.30;;
4726;SDS011;2377;51.734;8.950;2023-03-23T09:53:50;7.80;;;2.50;;
4726;SDS011;2377;51.734;8.950;2023-03-23T09:56:25;10.10;;;2.10;;
4726;SDS011;2377;51.734;8.950;2023-03-23T09:58:58;6.90;;;2.53;;
4726;SDS011;2377;51.734;8.950;2023-03-23T10:01:31;4.83;;;2.30;;
4726;SDS011;2377;51.734;8.950;2023-03-23T10:04:03;4.33;;;2.00;;
4726;SDS011;2377;51.734;8.950;2023-03-23T10:06:39;4.83;;;2.17;;
4726;SDS011;2377;51.734;8.950;2023-03-23T10:09:06;5.07;;;2.10;;
4726;SDS011;2377;51.734;8.950;2023-03-23T10:11:44;4.40;;;2.17;;
4726;SDS011;2377;51.734;8.950;2023-03-23T10:17:25;5.30;;;2.23;;
4726;SDS011;2377;51.734;8.950;2023-03-23T10:19:57;6.30;;;2.80;;
4726;SDS011;2377;51.734;8.950;2023-03-23T10:22:46;5.43;;;2.50;;
4726;SDS011;2377;51.734;8.950;2023-03-23T10:25:23;6.37;;;2.10;;
4726;SDS011;2377;51.734;8.950;2023-03-23T10:27:59;7.60;;;2.63;;
4726;SDS011;2377;51.734;8.950;2023-03-23T10:30:33;5.03;;;1.97;;
4726;SDS011;2377;51.734;8.950;2023-03-23T10:33:05;9.13;;;2.83;;
4726;SDS011;2377;51.734;8.950;2023-03-23T10:35:45;6.20;;;2.60;;
4726;SDS011;2377;51.734;8.950;2023-03-23T10:38:26;7.47;;;2.23;;
4726;SDS011;2377;51.734;8.950;2023-03-23T10:41:04;6.83;;;2.10;;
4726;SDS011;2377;51.734;8.950;2023-03-23T10:43:38;5.37;;;2.50;;
4726;SDS011;2377;51.734;8.950;2023-03-23T10:46:11;9.00;;;2.80;;
4726;SDS011;2377;51.734;8.950;2023-03-23T10:48:49;7.10;;;2.30;;
4726;SDS011;2377;51.734;8.950;2023-03-23T10:51:21;5.97;;;2.40;;
4726;SDS011;2377;51.734;8.950;2023-03-23T10:53:57;6.50;;;2.20;;
4726;SDS011;2377;51.734;8.950;2023-03-23T10:56:28;10.90;;;2.77;;
4726;SDS011;2377;51.734;8.950;2023-03-23T10:59:12;6.37;;;2.40;;
4726;SDS011;2377;51.734;8.950;2023-03-23T11:01:45;7.87;;;2.40;;
4726;SDS011;2377;51.734;8.950;2023-03-23T11:04:18;7.93;;;2.70;;
4726;SDS011;2377;51.734;8.950;2023-03-23T11:06:48;7.30;;;2.40;;
4726;SDS011;2377;51.734;8.950;2023-03-23T11:09:19;10.90;;;2.70;;
4726;SDS011;2377;51.734;8.950;2023-03-23T11:11:58;5.33;;;2.07;;
4726;SDS011;2377;51.734;8.950;2023-03-23T11:14:29;6.93;;;2.80;;
4726;SDS011;2377;51.734;8.950;2023-03-23T11:16:59;8.87;;;2.10;;
4726;SDS011;2377;51.734;8.950;2023-03-23T11:19:30;7.90;;;2.33;;
4726;SDS011;2377;51.734;8.950;2023-03-23T11:22:05;7.40;;;2.47;;
4726;SDS011;2377;51.734;8.950;2023-03-23T11:24:36;6.93;;;2.03;;
4726;SDS011;2377;51.734;8.950;2023-03-23T11:27:08;4.17;;;2.07;;
4726;SDS011;2377;51.734;8.950;2023-03-23T11:29:48;6.87;;;2.53;;
4726;SDS011;2377;51.734;8.950;2023-03-23T11:32:21;7.00;;;2.60;;
4726;SDS011;2377;51.734;8.950;2023-03-23T11:34:54;13.20;;;2.77;;
4726;SDS011;2377;51.734;8.950;2023-03-23T11:37:28;9.90;;;2.70;;
4726;SDS011;2377;51.734;8.950;2023-03-23T11:40:01;4.60;;;2.30;;
4726;SDS011;2377;51.734;8.950;2023-03-23T11:42:43;7.63;;;2.50;;
4726;SDS011;2377;51.734;8.950;2023-03-23T11:45:16;7.90;;;2.47;;
4726;SDS011;2377;51.734;8.950;2023-03-23T11:47:50;8.57;;;2.37;;
4726;SDS011;2377;51.734;8.950;2023-03-23T11:50:31;7.70;;;2.20;;
4726;SDS011;2377;51.734;8.950;2023-03-23T11:53:02;11.03;;;2.73;;
4726;SDS011;2377;51.734;8.950;2023-03-23T11:55:50;9.07;;;2.80;;
4726;SDS011;2377;51.734;8.950;2023-03-23T11:58:26;5.57;;;1.93;;
4726;SDS011;2377;51.734;8.950;2023-03-23T12:01:00;5.27;;;2.20;;
4726;SDS011;2377;51.734;8.950;2023-03-23T12:06:46;10.87;;;2.43;;
4726;SDS011;2377;51.734;8.950;2023-03-23T12:09:25;8.70;;;2.20;;
4726;SDS011;2377;51.734;8.950;2023-03-23T12:12:09;10.00;;;2.20;;
4726;SDS011;2377;51.734;8.950;2023-03-23T12:14:47;4.90;;;2.03;;
4726;SDS011;2377;51.734;8.950;2023-03-23T12:17:31;9.80;;;2.30;;
4726;SDS011;2377;51.734;8.950;2023-03-23T12:20:17;7.60;;;2.27;;
4726;SDS011;2377;51.734;8.950;2023-03-23T12:25:52;6.13;;;2.17;;
4726;SDS011;2377;51.734;8.950;2023-03-23T12:28:39;6.60;;;2.73;;
4726;SDS011;2377;51.734;8.950;2023-03-23T12:31:25;6.00;;;2.67;;
4726;SDS011;2377;51.734;8.950;2023-03-23T12:34:06;8.47;;;2.37;;
4726;SDS011;2377;51.734;8.950;2023-03-23T12:36:51;5.90;;;2.10;;
4726;SDS011;2377;51.734;8.950;2023-03-23T12:42:52;5.40;;;2.40;;
4726;SDS011;2377;51.734;8.950;2023-03-23T12:45:37;5.60;;;2.40;;
4726;SDS011;2377;51.734;8.950;2023-03-23T12:48:29;9.53;;;2.77;;
4726;SDS011;2377;51.734;8.950;2023-03-23T12:51:13;3.10;;;1.70;;
4726;SDS011;2377;51.734;8.950;2023-03-23T12:53:51;4.83;;;2.03;;
4726;SDS011;2377;51.734;8.950;2023-03-23T12:56:26;2.73;;;1.70;;
4726;SDS011;2377;51.734;8.950;2023-03-23T12:59:02;5.03;;;1.90;;
4726;SDS011;2377;51.734;8.950;2023-03-23T13:01:37;3.90;;;2.10;;
4726;SDS011;2377;51.734;8.950;2023-03-23T13:04:11;3.10;;;1.50;;
4726;SDS011;2377;51.734;8.950;2023-03-23T13:06:45;2.80;;;1.80;;
4726;SDS011;2377;51.734;8.950;2023-03-23T13:09:15;7.53;;;2.20;;
4726;SDS011;2377;51.734;8.950;2023-03-23T13:11:51;5.43;;;2.20;;
4726;SDS011;2377;51.734;8.950;2023-03-23T13:14:24;7.60;;;2.33;;
4726;SDS011;2377;51.734;8.950;2023-03-23T13:17:10;6.47;;;2.00;;
4726;SDS011;2377;51.734;8.950;2023-03-23T13:19:56;12.20;;;2.93;;
4726;SDS011;2377;51.734;8.950;2023-03-23T13:22:46;6.73;;;2.60;;
4726;SDS011;2377;51.734;8.950;2023-03-23T13:25:22;6.27;;;2.63;;
4726;SDS011;2377;51.734;8.950;2023-03-23T13:28:05;3.77;;;2.20;;
4726;SDS011;2377;51.734;8.950;2023-03-23T13:30:52;3.60;;;2.40;;
4726;SDS011;2377;51.734;8.950;2023-03-23T13:33:25;4.50;;;2.43;;
4726;SDS011;2377;51.734;8.950;2023-03-23T13:35:56;5.93;;;2.53;;
4726;SDS011;2377;51.734;8.950;2023-03-23T13:38:33;4.20;;;2.60;;
4726;SDS011;2377;51.734;8.950;2023-03-23T13:41:05;4.23;;;2.07;;
4726;SDS011;2377;51.734;8.950;2023-03-23T13:43:36;5.83;;;2.50;;
4726;SDS011;2377;51.734;8.950;2023-03-23T13:46:07;5.83;;;2.60;;
4726;SDS011;2377;51.734;8.950;2023-03-23T13:48:40;4.20;;;2.30;;
4726;SDS011;2377;51.734;8.950;2023-03-23T13:51:24;9.80;;;2.80;;
4726;SDS011;2377;51.734;8.950;2023-03-23T13:54:14;6.40;;;3.37;;
4726;SDS011;2377;51.734;8.950;2023-03-23T13:56:56;3.70;;;2.40;;
4726;SDS011;2377;51.734;8.950;2023-03-23T13:59:33;5.60;;;3.17;;
4726;SDS011;2377;51.734;8.950;2023-03-23T14:02:28;6.50;;;3.10;;
4726;SDS011;2377;51.734;8.950;2023-03-23T14:08:11;4.47;;;2.67;;
4726;SDS011;2377;51.734;8.950;2023-03-23T14:10:50;4.40;;;2.47;;
4726;SDS011;2377;51.734;8.950;2023-03-23T14:13:23;4.00;;;3.00;;
4726;SDS011;2377;51.734;8.950;2023-03-23T14:15:58;5.83;;;3.03;;
4726;SDS011;2377;51.734;8.950;2023-03-23T14:18:32;4.87;;;2.60;;
4726;SDS011;2377;51.734;8.950;2023-03-23T14:21:03;5.53;;;3.40;;
4726;SDS011;2377;51.734;8.950;2023-03-23T14:23:40;6.00;;;2.90;;
4726;SDS011;2377;51.734;8.950;2023-03-23T14:26:11;6.23;;;3.00;;
4726;SDS011;2377;51.734;8.950;2023-03-23T14:28:44;4.33;;;3.00;;
4726;SDS011;2377;51.734;8.950;2023-03-23T14:31:17;8.30;;;3.23;;
4726;SDS011;2377;51.734;8.950;2023-03-23T14:33:47;4.37;;;2.60;;
4726;SDS011;2377;51.734;8.950;2023-03-23T14:36:19;4.53;;;2.83;;
4726;SDS011;2377;51.734;8.950;2023-03-23T14:38:49;7.57;;;3.33;;
4726;SDS011;2377;51.734;8.950;2023-03-23T14:41:29;7.13;;;3.80;;
4726;SDS011;2377;51.734;8.950;2023-03-23T14:43:59;4.80;;;2.87;;
4726;SDS011;2377;51.734;8.950;2023-03-23T14:46:30;7.27;;;3.57;;
4726;SDS011;2377;51.734;8.950;2023-03-23T14:48:59;4.70;;;3.37;;
4726;SDS011;2377;51.734;8.950;2023-03-23T14:51:28;6.73;;;3.40;;
4726;SDS011;2377;51.734;8.950;2023-03-23T14:53:57;4.50;;;3.20;;
4726;SDS011;2377;51.734;8.950;2023-03-23T14:56:32;9.20;;;4.47;;
4726;SDS011;2377;51.734;8.950;2023-03-23T14:59:03;5.90;;;3.70;;
4726;SDS011;2377;51.734;8.950;2023-03-23T15:01:35;5.47;;;3.63;;
4726;SDS011;2377;51.734;8.950;2023-03-23T15:04:07;6.07;;;3.63;;
4726;SDS011;2377;51.734;8.950;2023-03-23T15:06:39;6.93;;;3.90;;
4726;SDS011;2377;51.734;8.950;2023-03-23T15:09:13;5.30;;;3.73;;
4726;SDS011;2377;51.734;8.950;2023-03-23T15:11:52;5.30;;;4.07;;
4726;SDS011;2377;51.734;8.950;2023-03-23T15:14:26;5.57;;;3.53;;
4726;SDS011;2377;51.734;8.950;2023-03-23T15:16:59;6.10;;;3.60;;
4726;SDS011;2377;51.734;8.950;2023-03-23T15:19:28;5.50;;;3.93;;
4726;SDS011;2377;51.734;8.950;2023-03-23T15:22:05;6.13;;;3.97;;
4726;SDS011;2377;51.734;8.950;2023-03-23T15:24:42;7.30;;;3.93;;
4726;SDS011;2377;51.734;8.950;2023-03-23T15:27:13;4.13;;;3.20;;
4726;SDS011;2377;51.734;8.950;2023-03-23T15:29:50;5.40;;;3.40;;
4726;SDS011;2377;51.734;8.950;2023-03-23T15:32:23;6.80;;;4.83;;
4726;SDS011;2377;51.734;8.950;2023-03-23T15:34:54;8.90;;;4.50;;
4726;SDS011;2377;51.734;8.950;2023-03-23T15:37:24;6.37;;;4.70;;
4726;SDS011;2377;51.734;8.950;2023-03-23T15:39:54;5.70;;;4.67;;
4726;SDS011;2377;51.734;8.950;2023-03-23T15:42:26;6.27;;;3.83;;
4726;SDS011;2377;51.734;8.950;2023-03-23T15:44:57;10.27;;;4.80;;
4726;SDS011;2377;51.734;8.950;2023-03-23T15:47:46;7.10;;;4.53;;
4726;SDS011;2377;51.734;8.950;2023-03-23T15:50:16;6.03;;;4.30;;
4726;SDS011;2377;51.734;8.950;2023-03-23T15:52:46;5.37;;;4.07;;
4726;SDS011;2377;51.734;8.950;2023-03-23T15:55:24;6.10;;;5.10;;
4726;SDS011;2377;51.734;8.950;2023-03-23T15:57:55;6.03;;;4.13;;
4726;SDS011;2377;51.734;8.950;2023-03-23T16:00:24;6.33;;;4.13;;
4726;SDS011;2377;51.734;8.950;2023-03-23T16:02:54;6.30;;;4.47;;
4726;SDS011;2377;51.734;8.950;2023-03-23T16:05:25;7.47;;;4.90;;